Time;durP1;ratioP1;P1;durP2;ratioP2;P2;SDS_P1;SDS_P2;PMS_P1;PMS_P2;Temp;Humidity;BMP_temperature;BMP_pressure;BME280_temperature;BME280_humidity;BME280_pressure;Samples;Min_cycle;Max_cycle;Signal;HPM_P1;HPM_P2
2023/11/26 05:10:12;;;;;;;7.97;3.55;;;;;;;4.69;63.35;94879.22;6094066;23;20026;-85
2023/11/26 05:12:38;;;;;;;5.72;3.22;;;;;;;4.88;62.41;94873.09;6041067;23;20031;-85
2023/11/26 05:15:04;;;;;;;5.38;3.30;;;;;;;4.94;62.22;94876.81;6089112;23;20039;-85
2023/11/26 05:17:30;;;;;;;4.15;3.10;;;;;;;4.90;62.46;94878.88;6089194;23;19999;-84
2023/11/26 05:19:55;;;;;;;5.05;2.80;;;;;;;4.92;62.19;94878.75;6065229;23;20014;-86
2023/11/26 05:40:17;;;;;;;5.38;3.65;;;;;;;4.94;61.49;94899.22;6098147;23;20022;-85
2023/11/26 05:42:43;;;;;;;6.10;3.83;;;;;;;4.99;61.50;94899.56;6074635;23;20061;-85
2023/11/26 05:45:08;;;;;;;5.28;3.53;;;;;;;5.24;60.90;94923.75;6098580;23;20010;-86
2023/11/26 05:47:35;;;;;;;6.65;3.33;;;;;;;5.18;60.60;94911.44;6098240;23;20097;-85
2023/11/26 05:50:01;;;;;;;5.57;3.60;;;;;;;5.21;60.63;94921.47;6098654;23;20010;-86
2023/11/26 05:52:29;;;;;;;5.95;3.70;;;;;;;5.27;60.57;94926.84;6074608;23;20017;-86
2023/11/26 05:54:54;;;;;;;5.03;3.40;;;;;;;5.05;60.49;94910.09;6074673;23;20014;-86
2023/11/26 05:57:20;;;;;;;4.47;3.40;;;;;;;5.11;60.97;94926.72;6099012;23;20010;-86
2023/11/26 05:59:47;;;;;;;6.28;3.60;;;;;;;5.28;60.26;94932.78;6074949;23;20006;-86
2023/11/26 06:02:12;;;;;;;5.55;3.28;;;;;;;5.32;60.17;94923.78;6073916;23;20010;-86
2023/11/26 06:04:38;;;;;;;4.55;3.10;;;;;;;5.13;61.00;94939.47;6098315;23;20012;-86
2023/11/26 06:17:15;;;;;;;7.70;3.83;;;;;;;5.11;60.85;94929.31;6071373;23;20026;-85
2023/11/26 06:19:41;;;;;;;6.63;3.30;;;;;;;5.09;61.04;94944.91;6045914;23;20036;-85
2023/11/26 06:22:06;;;;;;;7.18;3.13;;;;;;;5.21;60.29;94936.94;6045645;23;20006;-86
2023/11/26 06:24:33;;;;;;;5.85;3.25;;;;;;;5.15;60.48;94942.69;6069567;23;20010;-86
2023/11/26 07:13:19;;;;;;;6.85;4.22;;;;;;;5.14;61.23;94975.41;6127008;23;20057;-85
2023/11/26 07:15:50;;;;;;;6.25;3.97;;;;;;;5.24;61.00;94978.69;6128872;23;20025;-85
2023/11/26 07:18:16;;;;;;;15.43;7.53;;;;;;;5.40;60.16;94990.88;6129142;23;20093;-86
2023/11/26 07:20:42;;;;;;;12.00;5.57;;;;;;;5.48;60.36;94998.69;6129017;23;20029;-86
2023/11/26 08:37:37;;;;;;;5.60;4.40;;;;;;;5.62;59.47;95036.03;6129962;23;20026;-84
2023/11/26 08:40:06;;;;;;;6.03;3.42;;;;;;;5.70;60.04;95030.09;6068506;23;20018;-86
2023/11/26 08:42:34;;;;;;;6.13;4.07;;;;;;;5.87;59.15;95033.59;6068001;23;20020;-85
2023/11/26 08:45:01;;;;;;;8.43;4.40;;;;;;;5.90;59.11;95038.44;6067901;23;20011;-86
2023/11/26 08:47:30;;;;;;;6.20;3.75;;;;;;;5.91;59.43;95034.91;6045526;23;20014;-86
2023/11/26 08:49:58;;;;;;;5.53;3.80;;;;;;;5.82;58.81;95018.56;6046085;23;20061;-86
2023/11/26 08:54:52;;;;;;;4.80;3.30;;;;;;;5.90;58.83;95024.72;6134210;23;20025;-85
2023/11/26 09:04:53;;;;;;;5.68;4.22;;;;;;;6.29;57.32;95025.09;6099256;23;20134;-85
2023/11/26 09:07:19;;;;;;;6.32;4.68;;;;;;;5.86;58.61;95022.47;6073011;23;20017;-86
2023/11/26 09:09:45;;;;;;;8.95;4.93;;;;;;;5.48;58.94;95018.50;6098440;23;20010;-85
2023/11/26 09:12:10;;;;;;;42.75;26.08;;;;;;;5.82;58.93;95025.50;6097684;23;20013;-85
2023/11/26 09:14:36;;;;;;;23.25;14.25;;;;;;;6.03;57.98;95027.72;6097466;23;20006;-86
2023/11/26 09:17:03;;;;;;;14.95;9.73;;;;;;;5.98;57.92;95030.00;6097240;23;20014;-86
2023/11/26 09:19:30;;;;;;;17.73;11.40;;;;;;;6.07;57.67;95018.72;6074022;23;20010;-85
2023/11/26 09:24:24;;;;;;;21.48;17.23;;;;;;;6.30;57.52;95018.16;6124316;23;20026;-86
2023/11/26 09:26:50;;;;;;;5.53;3.67;;;;;;;6.19;57.49;95027.00;6097463;23;20058;-86
2023/11/26 09:29:19;;;;;;;4.93;3.40;;;;;;;6.06;58.05;95030.00;6095944;23;20019;-86
2023/11/26 09:31:45;;;;;;;3.88;3.05;;;;;;;6.07;58.44;95018.72;6074472;23;20010;-86
2023/11/26 09:34:11;;;;;;;5.18;2.75;;;;;;;6.30;57.66;95024.13;6097995;23;20041;-86
2023/11/26 09:36:41;;;;;;;4.20;2.78;;;;;;;6.33;57.04;95028.19;6097951;23;20013;-86
2023/11/26 09:39:07;;;;;;;3.75;3.08;;;;;;;6.40;57.29;95013.69;6097548;23;20037;-85
2023/11/26 10:43:06;;;;;;;5.43;2.72;;;;;;;6.46;55.61;94984.66;6113155;23;20049;-86
2023/11/26 10:45:34;;;;;;;3.72;2.47;;;;;;;6.95;54.62;94987.31;6099380;23;20013;-85
2023/11/26 10:48:05;;;;;;;4.68;2.80;;;;;;;6.56;54.81;94979.34;6123780;23;20046;-86
2023/11/26 10:50:56;;;;;;;4.03;2.38;;;;;;;7.10;54.74;94978.91;6124207;23;20042;-85
2023/11/26 10:53:26;;;;;;;4.30;2.80;;;;;;;6.91;55.47;94980.84;6099488;23;20002;-86
2023/11/26 11:18:53;;;;;;;3.97;2.40;;;;;;;7.97;54.28;94958.38;6098716;23;20026;-87
2023/11/26 11:21:18;;;;;;;4.13;2.42;;;;;;;8.05;53.02;94942.78;6075788;23;20014;-85
2023/11/26 11:23:51;;;;;;;5.35;2.50;;;;;;;8.37;52.63;94951.38;6098988;23;20028;-85
2023/11/26 11:26:18;;;;;;;3.00;2.28;;;;;;;8.18;52.83;94963.78;6099405;23;20042;-85
2023/11/26 11:28:47;;;;;;;5.25;2.47;;;;;;;8.20;53.18;94972.19;6098780;23;20006;-86
2023/11/26 11:31:20;;;;;;;5.60;3.08;;;;;;;8.09;51.25;94972.59;6098972;23;20010;-86
2023/11/26 11:34:00;;;;;;;5.55;2.50;;;;;;;8.11;49.96;94970.63;6099122;23;20017;-86
2023/11/26 11:36:45;;;;;;;4.43;2.70;;;;;;;8.05;52.19;94968.69;6099120;23;20033;-85
2023/11/26 11:44:32;;;;;;;3.85;2.53;;;;;;;8.13;51.74;94963.50;6118074;23;20069;-85
2023/11/26 11:47:02;;;;;;;4.07;2.20;;;;;;;8.19;51.71;94970.59;6127623;23;20009;-84
2023/11/26 11:49:51;;;;;;;9.57;4.45;;;;;;;8.10;52.13;94976.78;6127516;23;20006;-85
2023/11/26 11:58:11;;;;;;;6.43;3.92;;;;;;;8.44;50.91;94964.50;6125792;23;20052;-86
2023/11/26 12:00:40;;;;;;;3.88;2.80;;;;;;;8.33;52.14;94968.25;6098362;23;20018;-86
2023/11/26 12:03:06;;;;;;;3.38;2.70;;;;;;;8.23;53.18;94969.25;6074770;23;20002;-85
2023/11/26 12:05:34;;;;;;;7.28;4.15;;;;;;;8.12;52.92;94945.53;6098917;23;20113;-86
2023/11/26 12:33:56;;;;;;;3.85;2.67;;;;;;;7.79;53.65;94935.28;6130763;23;20069;-87
2023/11/26 12:36:24;;;;;;;4.40;2.67;;;;;;;7.89;53.08;94935.91;6122393;23;20025;-85
2023/11/26 12:38:50;;;;;;;4.22;3.20;;;;;;;8.28;51.23;94927.31;6098846;23;20006;-87
2023/11/26 12:41:20;;;;;;;4.60;3.10;;;;;;;8.05;52.18;94931.63;6122988;23;20006;-86
2023/11/26 12:43:46;;;;;;;5.03;2.63;;;;;;;8.06;53.06;94939.22;6122830;23;20002;-87
